Van Metre, South Dakota
Current Conditions -  °F | °C
As of 12:53 PM on Tuesday 27 Jan 2015 (Local Time) from KPIR Reporting Station
Clear Clear  
Wind Chill: 51°   Ceiling: Unl
Heat Index: 51°   Visibility: 10mi
Dew Point: 34°   Wind: 3mph
Humidity: 52%   Direction: 180°S
Pressure: 29.91"   Gusts: NA
Location:  43.9557°N, 100.703°W
Report Text: KPIR 271853Z AUTO 18003KT 10SM CLR 11/01 A2991 RMK AO2 SLP139 T01060011
Loading
Personal Weather Stations






























Interactive Weather Map New forecast layout! Learn more

10-Day Weather Forecast

Advertisements
Track Severe Weather on mobile